sensor_id;sensor_type;location;lat;lon;timestamp;P1;durP1;ratioP1;P2;durP2;ratioP2
22223;SDS011;11281;52.194;21.006;2022-09-29T00:00:20;13.93;;;9.00;;
22223;SDS011;11281;52.194;21.006;2022-09-29T00:04:42;12.02;;;8.85;;
22223;SDS011;11281;52.194;21.006;2022-09-29T00:09:04;11.48;;;7.93;;
22223;SDS011;11281;52.194;21.006;2022-09-29T00:13:26;11.48;;;8.48;;
22223;SDS011;11281;52.194;21.006;2022-09-29T00:17:47;9.50;;;7.88;;
22223;SDS011;11281;52.194;21.006;2022-09-29T00:22:09;11.25;;;8.50;;
22223;SDS011;11281;52.194;21.006;2022-09-29T00:26:31;11.32;;;8.30;;
22223;SDS011;11281;52.194;21.006;2022-09-29T00:30:53;11.35;;;8.73;;
22223;SDS011;11281;52.194;21.006;2022-09-29T00:35:14;12.48;;;8.85;;
22223;SDS011;11281;52.194;21.006;2022-09-29T00:39:38;14.07;;;10.30;;
22223;SDS011;11281;52.194;21.006;2022-09-29T00:48:29;15.40;;;10.87;;
22223;SDS011;11281;52.194;21.006;2022-09-29T00:52:54;14.75;;;11.38;;
22223;SDS011;11281;52.194;21.006;2022-09-29T00:57:22;17.73;;;10.85;;
22223;SDS011;11281;52.194;21.006;2022-09-29T01:01:51;16.63;;;11.07;;
22223;SDS011;11281;52.194;21.006;2022-09-29T01:06:15;15.07;;;10.73;;
22223;SDS011;11281;52.194;21.006;2022-09-29T01:10:42;13.38;;;10.20;;
22223;SDS011;11281;52.194;21.006;2022-09-29T01:15:05;13.60;;;10.25;;
22223;SDS011;11281;52.194;21.006;2022-09-29T01:34:18;13.95;;;9.90;;
22223;SDS011;11281;52.194;21.006;2022-09-29T01:43:58;17.85;;;10.68;;
22223;SDS011;11281;52.194;21.006;2022-09-29T01:48:33;17.02;;;11.18;;
22223;SDS011;11281;52.194;21.006;2022-09-29T01:53:01;16.67;;;11.60;;
22223;SDS011;11281;52.194;21.006;2022-09-29T01:57:31;17.33;;;10.80;;
22223;SDS011;11281;52.194;21.006;2022-09-29T02:02:02;15.60;;;11.15;;
22223;SDS011;11281;52.194;21.006;2022-09-29T02:06:34;18.92;;;11.65;;
22223;SDS011;11281;52.194;21.006;2022-09-29T02:11:06;13.95;;;10.25;;
22223;SDS011;11281;52.194;21.006;2022-09-29T02:15:32;15.65;;;11.00;;
22223;SDS011;11281;52.194;21.006;2022-09-29T02:19:59;19.52;;;11.40;;
22223;SDS011;11281;52.194;21.006;2022-09-29T02:24:21;16.08;;;11.25;;
22223;SDS011;11281;52.194;21.006;2022-09-29T02:28:44;19.42;;;12.55;;
22223;SDS011;11281;52.194;21.006;2022-09-29T02:33:15;16.63;;;11.38;;
22223;SDS011;11281;52.194;21.006;2022-09-29T02:37:46;17.08;;;11.13;;
22223;SDS011;11281;52.194;21.006;2022-09-29T02:52:09;14.98;;;11.35;;
22223;SDS011;11281;52.194;21.006;2022-09-29T02:57:15;17.85;;;11.00;;
22223;SDS011;11281;52.194;21.006;2022-09-29T03:02:07;10.82;;;8.80;;
22223;SDS011;11281;52.194;21.006;2022-09-29T03:06:29;15.25;;;9.10;;
22223;SDS011;11281;52.194;21.006;2022-09-29T03:10:51;12.18;;;8.95;;
22223;SDS011;11281;52.194;21.006;2022-09-29T03:15:13;12.60;;;9.27;;
22223;SDS011;11281;52.194;21.006;2022-09-29T03:19:35;13.57;;;9.00;;
22223;SDS011;11281;52.194;21.006;2022-09-29T03:23:57;11.95;;;7.90;;
22223;SDS011;11281;52.194;21.006;2022-09-29T03:28:19;12.07;;;8.57;;
22223;SDS011;11281;52.194;21.006;2022-09-29T03:32:44;11.07;;;8.82;;
22223;SDS011;11281;52.194;21.006;2022-09-29T03:37:06;14.52;;;8.35;;
22223;SDS011;11281;52.194;21.006;2022-09-29T03:41:27;12.45;;;8.82;;
22223;SDS011;11281;52.194;21.006;2022-09-29T03:45:53;13.38;;;10.15;;
22223;SDS011;11281;52.194;21.006;2022-09-29T03:50:16;14.43;;;11.05;;
22223;SDS011;11281;52.194;21.006;2022-09-29T03:54:37;13.05;;;9.85;;
22223;SDS011;11281;52.194;21.006;2022-09-29T03:58:59;15.98;;;9.57;;
22223;SDS011;11281;52.194;21.006;2022-09-29T04:03:21;12.52;;;9.35;;
22223;SDS011;11281;52.194;21.006;2022-09-29T04:07:43;13.07;;;9.30;;
22223;SDS011;11281;52.194;21.006;2022-09-29T04:12:04;12.75;;;9.02;;
22223;SDS011;11281;52.194;21.006;2022-09-29T04:16:26;12.63;;;9.73;;
22223;SDS011;11281;52.194;21.006;2022-09-29T04:20:48;13.00;;;9.40;;
22223;SDS011;11281;52.194;21.006;2022-09-29T04:25:10;14.38;;;10.20;;
22223;SDS011;11281;52.194;21.006;2022-09-29T04:29:31;14.50;;;10.07;;
22223;SDS011;11281;52.194;21.006;2022-09-29T04:33:53;12.23;;;9.38;;
22223;SDS011;11281;52.194;21.006;2022-09-29T04:38:15;13.35;;;10.13;;
22223;SDS011;11281;52.194;21.006;2022-09-29T04:42:37;11.68;;;8.98;;
22223;SDS011;11281;52.194;21.006;2022-09-29T04:46:59;12.23;;;9.02;;
22223;SDS011;11281;52.194;21.006;2022-09-29T04:51:21;10.32;;;8.55;;
22223;SDS011;11281;52.194;21.006;2022-09-29T04:55:42;11.57;;;9.07;;
22223;SDS011;11281;52.194;21.006;2022-09-29T05:00:04;12.63;;;9.40;;
22223;SDS011;11281;52.194;21.006;2022-09-29T05:04:27;18.10;;;10.95;;
22223;SDS011;11281;52.194;21.006;2022-09-29T05:08:49;13.60;;;10.15;;
22223;SDS011;11281;52.194;21.006;2022-09-29T05:13:11;11.85;;;9.30;;
22223;SDS011;11281;52.194;21.006;2022-09-29T05:17:32;14.05;;;10.20;;
22223;SDS011;11281;52.194;21.006;2022-09-29T05:21:54;15.93;;;11.02;;
22223;SDS011;11281;52.194;21.006;2022-09-29T05:26:16;14.90;;;10.75;;
22223;SDS011;11281;52.194;21.006;2022-09-29T05:30:38;14.55;;;10.80;;
22223;SDS011;11281;52.194;21.006;2022-09-29T05:34:59;17.70;;;11.45;;
22223;SDS011;11281;52.194;21.006;2022-09-29T05:39:22;15.02;;;10.77;;
22223;SDS011;11281;52.194;21.006;2022-09-29T05:43:44;15.85;;;10.43;;
22223;SDS011;11281;52.194;21.006;2022-09-29T05:48:05;15.10;;;10.18;;
22223;SDS011;11281;52.194;21.006;2022-09-29T05:52:27;14.35;;;9.80;;
22223;SDS011;11281;52.194;21.006;2022-09-29T05:56:49;13.05;;;10.43;;
22223;SDS011;11281;52.194;21.006;2022-09-29T06:01:15;12.43;;;9.90;;
22223;SDS011;11281;52.194;21.006;2022-09-29T06:05:40;15.95;;;10.75;;
22223;SDS011;11281;52.194;21.006;2022-09-29T06:10:02;12.80;;;9.57;;
22223;SDS011;11281;52.194;21.006;2022-09-29T06:14:24;13.57;;;10.18;;
22223;SDS011;11281;52.194;21.006;2022-09-29T06:18:46;13.10;;;10.18;;
22223;SDS011;11281;52.194;21.006;2022-09-29T06:23:08;13.35;;;9.90;;
22223;SDS011;11281;52.194;21.006;2022-09-29T06:27:30;15.93;;;10.68;;
22223;SDS011;11281;52.194;21.006;2022-09-29T06:31:52;14.07;;;10.07;;
22223;SDS011;11281;52.194;21.006;2022-09-29T06:36:20;15.73;;;11.07;;
22223;SDS011;11281;52.194;21.006;2022-09-29T06:41:14;14.77;;;10.32;;
22223;SDS011;11281;52.194;21.006;2022-09-29T06:45:36;16.13;;;11.13;;
22223;SDS011;11281;52.194;21.006;2022-09-29T06:49:58;19.05;;;11.02;;
22223;SDS011;11281;52.194;21.006;2022-09-29T06:54:22;17.15;;;10.82;;
22223;SDS011;11281;52.194;21.006;2022-09-29T06:58:46;14.70;;;11.05;;
22223;SDS011;11281;52.194;21.006;2022-09-29T07:03:08;13.38;;;10.73;;
22223;SDS011;11281;52.194;21.006;2022-09-29T07:07:30;17.00;;;10.95;;
22223;SDS011;11281;52.194;21.006;2022-09-29T07:11:52;13.45;;;9.85;;
22223;SDS011;11281;52.194;21.006;2022-09-29T07:16:14;13.73;;;10.02;;
22223;SDS011;11281;52.194;21.006;2022-09-29T07:20:35;12.75;;;10.40;;
22223;SDS011;11281;52.194;21.006;2022-09-29T07:24:57;11.52;;;9.90;;
22223;SDS011;11281;52.194;21.006;2022-09-29T07:29:19;14.15;;;9.73;;
22223;SDS011;11281;52.194;21.006;2022-09-29T07:33:44;12.50;;;9.48;;
22223;SDS011;11281;52.194;21.006;2022-09-29T07:38:08;11.48;;;8.93;;
22223;SDS011;11281;52.194;21.006;2022-09-29T07:42:30;9.50;;;8.07;;
22223;SDS011;11281;52.194;21.006;2022-09-29T07:46:51;10.55;;;7.78;;
22223;SDS011;11281;52.194;21.006;2022-09-29T07:51:15;11.13;;;8.07;;
22223;SDS011;11281;52.194;21.006;2022-09-29T07:55:39;11.25;;;7.72;;
22223;SDS011;11281;52.194;21.006;2022-09-29T08:00:01;10.23;;;7.47;;
22223;SDS011;11281;52.194;21.006;2022-09-29T08:04:24;10.00;;;7.32;;
22223;SDS011;11281;52.194;21.006;2022-09-29T08:08:46;9.82;;;6.55;;
22223;SDS011;11281;52.194;21.006;2022-09-29T08:13:08;7.95;;;6.93;;
22223;SDS011;11281;52.194;21.006;2022-09-29T08:17:30;8.35;;;6.95;;
22223;SDS011;11281;52.194;21.006;2022-09-29T08:21:51;9.88;;;6.97;;
22223;SDS011;11281;52.194;21.006;2022-09-29T08:26:14;10.02;;;7.22;;
22223;SDS011;11281;52.194;21.006;2022-09-29T08:30:39;9.48;;;7.65;;
22223;SDS011;11281;52.194;21.006;2022-09-29T08:35:01;10.32;;;7.68;;
22223;SDS011;11281;52.194;21.006;2022-09-29T08:39:23;8.20;;;7.32;;
22223;SDS011;11281;52.194;21.006;2022-09-29T08:43:44;8.57;;;7.68;;
22223;SDS011;11281;52.194;21.006;2022-09-29T08:48:12;9.27;;;7.80;;
22223;SDS011;11281;52.194;21.006;2022-09-29T08:52:43;9.13;;;7.20;;
22223;SDS011;11281;52.194;21.006;2022-09-29T08:57:13;9.40;;;7.35;;
22223;SDS011;11281;52.194;21.006;2022-09-29T09:06:32;7.07;;;6.10;;
22223;SDS011;11281;52.194;21.006;2022-09-29T09:21:07;8.00;;;5.40;;
22223;SDS011;11281;52.194;21.006;2022-09-29T09:25:36;6.85;;;5.53;;
22223;SDS011;11281;52.194;21.006;2022-09-29T09:30:11;6.93;;;5.45;;
22223;SDS011;11281;52.194;21.006;2022-09-29T09:39:19;9.40;;;6.80;;
22223;SDS011;11281;52.194;21.006;2022-09-29T09:44:00;8.32;;;7.18;;
22223;SDS011;11281;52.194;21.006;2022-09-29T09:53:42;10.80;;;8.45;;
22223;SDS011;11281;52.194;21.006;2022-09-29T09:58:11;10.95;;;8.20;;
22223;SDS011;11281;52.194;21.006;2022-09-29T10:02:46;10.95;;;7.90;;
22223;SDS011;11281;52.194;21.006;2022-09-29T10:07:10;9.23;;;7.47;;
22223;SDS011;11281;52.194;21.006;2022-09-29T10:11:32;9.85;;;7.57;;
22223;SDS011;11281;52.194;21.006;2022-09-29T10:16:14;9.32;;;7.25;;
22223;SDS011;11281;52.194;21.006;2022-09-29T10:20:40;7.55;;;6.75;;
22223;SDS011;11281;52.194;21.006;2022-09-29T10:25:07;12.98;;;8.07;;
22223;SDS011;11281;52.194;21.006;2022-09-29T10:29:39;8.18;;;7.18;;
22223;SDS011;11281;52.194;21.006;2022-09-29T10:34:18;7.45;;;6.15;;
22223;SDS011;11281;52.194;21.006;2022-09-29T10:38:44;8.23;;;6.57;;
22223;SDS011;11281;52.194;21.006;2022-09-29T10:43:26;9.15;;;6.78;;
22223;SDS011;11281;52.194;21.006;2022-09-29T10:48:10;7.75;;;6.28;;
22223;SDS011;11281;52.194;21.006;2022-09-29T10:52:34;10.25;;;6.55;;
22223;SDS011;11281;52.194;21.006;2022-09-29T10:56:57;7.28;;;6.00;;
22223;SDS011;11281;52.194;21.006;2022-09-29T11:01:19;7.57;;;6.68;;
22223;SDS011;11281;52.194;21.006;2022-09-29T11:05:53;8.25;;;6.60;;
22223;SDS011;11281;52.194;21.006;2022-09-29T11:10:52;7.47;;;6.65;;
22223;SDS011;11281;52.194;21.006;2022-09-29T11:19:50;10.45;;;7.18;;
22223;SDS011;11281;52.194;21.006;2022-09-29T11:29:06;8.70;;;6.75;;
22223;SDS011;11281;52.194;21.006;2022-09-29T11:52:59;8.98;;;7.13;;
22223;SDS011;11281;52.194;21.006;2022-09-29T12:16:57;11.13;;;8.73;;
22223;SDS011;11281;52.194;21.006;2022-09-29T12:21:35;12.73;;;9.10;;
22223;SDS011;11281;52.194;21.006;2022-09-29T12:26:04;14.15;;;10.25;;
22223;SDS011;11281;52.194;21.006;2022-09-29T12:30:45;13.32;;;9.40;;
22223;SDS011;11281;52.194;21.006;2022-09-29T12:35:16;11.45;;;8.80;;
22223;SDS011;11281;52.194;21.006;2022-09-29T12:40:05;11.02;;;8.38;;
22223;SDS011;11281;52.194;21.006;2022-09-29T12:44:55;12.93;;;8.88;;
22223;SDS011;11281;52.194;21.006;2022-09-29T12:49:52;9.75;;;7.57;;
22223;SDS011;11281;52.194;21.006;2022-09-29T12:54:45;10.65;;;8.25;;
22223;SDS011;11281;52.194;21.006;2022-09-29T13:23:09;10.23;;;8.00;;
22223;SDS011;11281;52.194;21.006;2022-09-29T13:27:38;12.02;;;8.60;;
22223;SDS011;11281;52.194;21.006;2022-09-29T13:32:05;10.95;;;7.57;;
22223;SDS011;11281;52.194;21.006;2022-09-29T13:45:57;10.02;;;7.63;;
22223;SDS011;11281;52.194;21.006;2022-09-29T13:50:51;8.60;;;7.68;;
22223;SDS011;11281;52.194;21.006;2022-09-29T13:56:07;7.75;;;6.65;;
22223;SDS011;11281;52.194;21.006;2022-09-29T14:00:14;7.97;;;6.00;;
22223;SDS011;11281;52.194;21.006;2022-09-29T14:09:12;7.18;;;6.47;;
22223;SDS011;11281;52.194;21.006;2022-09-29T14:18:21;9.38;;;6.50;;
22223;SDS011;11281;52.194;21.006;2022-09-29T14:22:59;8.63;;;6.80;;
22223;SDS011;11281;52.194;21.006;2022-09-29T14:27:30;9.10;;;8.15;;
22223;SDS011;11281;52.194;21.006;2022-09-29T14:31:54;10.35;;;7.72;;
22223;SDS011;11281;52.194;21.006;2022-09-29T14:36:19;11.45;;;8.07;;
22223;SDS011;11281;52.194;21.006;2022-09-29T14:40:58;9.52;;;7.80;;
22223;SDS011;11281;52.194;21.006;2022-09-29T14:45:27;12.07;;;8.57;;
22223;SDS011;11281;52.194;21.006;2022-09-29T15:00:20;11.95;;;8.68;;
22223;SDS011;11281;52.194;21.006;2022-09-29T15:04:49;12.25;;;9.40;;
22223;SDS011;11281;52.194;21.006;2022-09-29T15:09:15;14.07;;;10.32;;
22223;SDS011;11281;52.194;21.006;2022-09-29T15:13:41;13.15;;;9.65;;
22223;SDS011;11281;52.194;21.006;2022-09-29T15:18:09;13.63;;;9.32;;
22223;SDS011;11281;52.194;21.006;2022-09-29T15:22:57;11.25;;;8.30;;
22223;SDS011;11281;52.194;21.006;2022-09-29T15:27:42;15.43;;;8.43;;
22223;SDS011;11281;52.194;21.006;2022-09-29T15:32:18;9.32;;;7.60;;
22223;SDS011;11281;52.194;21.006;2022-09-29T15:36:49;9.70;;;7.72;;
22223;SDS011;11281;52.194;21.006;2022-09-29T15:41:17;10.90;;;8.05;;
22223;SDS011;11281;52.194;21.006;2022-09-29T15:45:45;8.68;;;7.38;;
22223;SDS011;11281;52.194;21.006;2022-09-29T15:50:21;11.60;;;7.95;;
22223;SDS011;11281;52.194;21.006;2022-09-29T15:54:57;9.10;;;7.32;;
22223;SDS011;11281;52.194;21.006;2022-09-29T15:59:19;10.05;;;7.78;;
22223;SDS011;11281;52.194;21.006;2022-09-29T16:08:21;11.50;;;7.70;;
22223;SDS011;11281;52.194;21.006;2022-09-29T16:12:46;9.98;;;7.75;;
22223;SDS011;11281;52.194;21.006;2022-09-29T16:17:16;9.48;;;7.53;;
22223;SDS011;11281;52.194;21.006;2022-09-29T16:21:39;12.82;;;9.48;;
22223;SDS011;11281;52.194;21.006;2022-09-29T16:34:56;18.45;;;14.77;;
22223;SDS011;11281;52.194;21.006;2022-09-29T16:40:16;17.70;;;12.63;;
22223;SDS011;11281;52.194;21.006;2022-09-29T16:44:45;13.40;;;10.98;;
22223;SDS011;11281;52.194;21.006;2022-09-29T16:49:14;14.70;;;10.02;;
22223;SDS011;11281;52.194;21.006;2022-09-29T16:53:49;11.48;;;8.80;;
22223;SDS011;11281;52.194;21.006;2022-09-29T16:58:18;10.85;;;8.65;;
22223;SDS011;11281;52.194;21.006;2022-09-29T17:02:40;11.98;;;9.32;;
22223;SDS011;11281;52.194;21.006;2022-09-29T17:07:01;11.32;;;9.02;;
22223;SDS011;11281;52.194;21.006;2022-09-29T17:11:23;10.63;;;8.82;;
22223;SDS011;11281;52.194;21.006;2022-09-29T17:15:48;16.02;;;9.27;;
22223;SDS011;11281;52.194;21.006;2022-09-29T17:20:12;14.82;;;11.27;;
22223;SDS011;11281;52.194;21.006;2022-09-29T17:24:38;14.85;;;11.75;;
22223;SDS011;11281;52.194;21.006;2022-09-29T17:29:00;16.27;;;12.02;;
22223;SDS011;11281;52.194;21.006;2022-09-29T17:33:22;15.00;;;10.68;;
22223;SDS011;11281;52.194;21.006;2022-09-29T17:37:44;13.27;;;10.23;;
22223;SDS011;11281;52.194;21.006;2022-09-29T17:42:09;13.48;;;10.40;;
22223;SDS011;11281;52.194;21.006;2022-09-29T17:46:33;11.95;;;10.02;;
22223;SDS011;11281;52.194;21.006;2022-09-29T17:50:56;12.05;;;8.38;;
22223;SDS011;11281;52.194;21.006;2022-09-29T17:55:19;14.77;;;11.23;;
22223;SDS011;11281;52.194;21.006;2022-09-29T17:59:42;23.02;;;15.48;;
22223;SDS011;11281;52.194;21.006;2022-09-29T18:04:04;28.38;;;17.23;;
22223;SDS011;11281;52.194;21.006;2022-09-29T18:08:28;27.27;;;18.17;;
22223;SDS011;11281;52.194;21.006;2022-09-29T18:12:49;28.45;;;18.63;;
22223;SDS011;11281;52.194;21.006;2022-09-29T18:17:11;24.40;;;15.88;;
22223;SDS011;11281;52.194;21.006;2022-09-29T18:21:33;18.98;;;13.70;;
22223;SDS011;11281;52.194;21.006;2022-09-29T18:25:55;21.30;;;13.60;;
22223;SDS011;11281;52.194;21.006;2022-09-29T18:30:18;17.67;;;13.02;;
22223;SDS011;11281;52.194;21.006;2022-09-29T18:34:43;18.13;;;12.85;;
22223;SDS011;11281;52.194;21.006;2022-09-29T18:39:04;17.63;;;12.80;;
22223;SDS011;11281;52.194;21.006;2022-09-29T18:43:26;16.05;;;11.68;;
22223;SDS011;11281;52.194;21.006;2022-09-29T18:47:53;15.18;;;11.13;;
22223;SDS011;11281;52.194;21.006;2022-09-29T18:52:19;16.25;;;10.65;;
22223;SDS011;11281;52.194;21.006;2022-09-29T18:56:41;16.98;;;10.77;;
22223;SDS011;11281;52.194;21.006;2022-09-29T19:01:03;16.70;;;11.63;;
22223;SDS011;11281;52.194;21.006;2022-09-29T19:05:25;20.42;;;14.68;;
22223;SDS011;11281;52.194;21.006;2022-09-29T19:09:51;19.52;;;13.52;;
22223;SDS011;11281;52.194;21.006;2022-09-29T19:14:13;17.67;;;12.35;;
22223;SDS011;11281;52.194;21.006;2022-09-29T19:18:35;20.30;;;13.90;;
22223;SDS011;11281;52.194;21.006;2022-09-29T19:22:57;19.42;;;12.77;;
22223;SDS011;11281;52.194;21.006;2022-09-29T19:27:22;17.30;;;12.48;;
22223;SDS011;11281;52.194;21.006;2022-09-29T19:31:44;20.30;;;13.32;;
22223;SDS011;11281;52.194;21.006;2022-09-29T19:36:07;17.30;;;13.38;;
22223;SDS011;11281;52.194;21.006;2022-09-29T19:40:34;28.75;;;17.67;;
22223;SDS011;11281;52.194;21.006;2022-09-29T19:44:57;65.43;;;30.55;;
22223;SDS011;11281;52.194;21.006;2022-09-29T19:49:19;59.53;;;29.90;;
22223;SDS011;11281;52.194;21.006;2022-09-29T19:53:40;78.93;;;39.67;;
22223;SDS011;11281;52.194;21.006;2022-09-29T19:58:03;82.68;;;40.50;;
22223;SDS011;11281;52.194;21.006;2022-09-29T20:02:24;79.78;;;39.83;;
22223;SDS011;11281;52.194;21.006;2022-09-29T20:06:46;76.38;;;40.08;;
22223;SDS011;11281;52.194;21.006;2022-09-29T20:11:09;60.38;;;31.02;;
22223;SDS011;11281;52.194;21.006;2022-09-29T20:15:32;51.00;;;27.80;;
22223;SDS011;11281;52.194;21.006;2022-09-29T20:19:54;42.83;;;24.30;;
22223;SDS011;11281;52.194;21.006;2022-09-29T20:24:16;32.03;;;20.42;;
22223;SDS011;11281;52.194;21.006;2022-09-29T20:28:40;31.15;;;20.65;;
22223;SDS011;11281;52.194;21.006;2022-09-29T20:33:02;30.77;;;20.08;;
22223;SDS011;11281;52.194;21.006;2022-09-29T20:37:23;33.10;;;19.38;;
22223;SDS011;11281;52.194;21.006;2022-09-29T20:41:47;28.33;;;17.83;;
22223;SDS011;11281;52.194;21.006;2022-09-29T20:46:11;31.70;;;17.17;;
22223;SDS011;11281;52.194;21.006;2022-09-29T20:50:36;28.77;;;18.23;;
22223;SDS011;11281;52.194;21.006;2022-09-29T20:54:58;27.88;;;17.88;;
22223;SDS011;11281;52.194;21.006;2022-09-29T20:59:21;28.23;;;17.60;;
22223;SDS011;11281;52.194;21.006;2022-09-29T21:03:50;25.95;;;16.67;;
22223;SDS011;11281;52.194;21.006;2022-09-29T21:08:33;27.52;;;16.67;;
22223;SDS011;11281;52.194;21.006;2022-09-29T21:12:55;27.90;;;16.92;;
22223;SDS011;11281;52.194;21.006;2022-09-29T21:17:17;25.95;;;17.08;;
22223;SDS011;11281;52.194;21.006;2022-09-29T21:21:39;26.42;;;17.13;;
22223;SDS011;11281;52.194;21.006;2022-09-29T21:26:09;27.80;;;17.33;;
22223;SDS011;11281;52.194;21.006;2022-09-29T21:30:35;26.00;;;16.80;;
22223;SDS011;11281;52.194;21.006;2022-09-29T21:34:57;25.77;;;16.58;;
22223;SDS011;11281;52.194;21.006;2022-09-29T21:39:18;32.03;;;19.55;;
22223;SDS011;11281;52.194;21.006;2022-09-29T21:43:41;33.45;;;21.23;;
22223;SDS011;11281;52.194;21.006;2022-09-29T21:48:07;38.17;;;21.40;;
22223;SDS011;11281;52.194;21.006;2022-09-29T21:52:28;38.67;;;21.30;;
22223;SDS011;11281;52.194;21.006;2022-09-29T21:56:51;44.40;;;25.70;;
22223;SDS011;11281;52.194;21.006;2022-09-29T22:01:13;64.65;;;33.13;;
22223;SDS011;11281;52.194;21.006;2022-09-29T22:05:40;60.55;;;34.28;;
22223;SDS011;11281;52.194;21.006;2022-09-29T22:10:03;54.63;;;31.17;;
22223;SDS011;11281;52.194;21.006;2022-09-29T22:14:25;60.15;;;34.05;;
22223;SDS011;11281;52.194;21.006;2022-09-29T22:18:47;55.22;;;33.63;;
22223;SDS011;11281;52.194;21.006;2022-09-29T22:23:09;53.08;;;31.50;;
22223;SDS011;11281;52.194;21.006;2022-09-29T22:27:31;55.45;;;33.13;;
22223;SDS011;11281;52.194;21.006;2022-09-29T22:31:53;55.58;;;32.40;;
22223;SDS011;11281;52.194;21.006;2022-09-29T22:36:14;51.83;;;31.80;;
22223;SDS011;11281;52.194;21.006;2022-09-29T22:40:37;48.15;;;30.27;;
22223;SDS011;11281;52.194;21.006;2022-09-29T22:45:00;47.08;;;29.20;;
22223;SDS011;11281;52.194;21.006;2022-09-29T22:49:22;44.65;;;28.23;;
22223;SDS011;11281;52.194;21.006;2022-09-29T22:53:43;43.42;;;27.73;;
22223;SDS011;11281;52.194;21.006;2022-09-29T22:58:05;45.28;;;28.17;;
22223;SDS011;11281;52.194;21.006;2022-09-29T23:02:27;38.92;;;24.42;;
22223;SDS011;11281;52.194;21.006;2022-09-29T23:06:49;43.90;;;26.33;;
22223;SDS011;11281;52.194;21.006;2022-09-29T23:11:14;43.40;;;26.20;;
22223;SDS011;11281;52.194;21.006;2022-09-29T23:15:40;36.58;;;22.85;;
22223;SDS011;11281;52.194;21.006;2022-09-29T23:20:02;35.60;;;23.00;;
22223;SDS011;11281;52.194;21.006;2022-09-29T23:24:25;33.97;;;23.85;;
22223;SDS011;11281;52.194;21.006;2022-09-29T23:28:47;28.90;;;19.95;;
22223;SDS011;11281;52.194;21.006;2022-09-29T23:33:09;29.73;;;19.98;;
22223;SDS011;11281;52.194;21.006;2022-09-29T23:37:31;27.98;;;18.38;;
22223;SDS011;11281;52.194;21.006;2022-09-29T23:42:13;28.52;;;18.85;;
22223;SDS011;11281;52.194;21.006;2022-09-29T23:46:36;36.00;;;23.20;;
22223;SDS011;11281;52.194;21.006;2022-09-29T23:50:59;39.17;;;22.38;;
22223;SDS011;11281;52.194;21.006;2022-09-29T23:55:21;33.00;;;20.67;;
22223;SDS011;11281;52.194;21.006;2022-09-29T23:59:42;29.98;;;18.92;;
